Elko, NV (89801)

2:42 PM PDT on September 01, 2014 (GMT -0700)
Elko 0.9 SE | Change Station
CLOSE
Current Station
Personal Weather Station
Location: Elko, NV
Elevation: 5075 ft
Nearby Weather Stations

Elev 5075 ft 40.83 °N, 115.75 °W | Updated 26 seconds ago

Clear
Clear
82.6 °F
Feels Like 80 °F
N
0.0
Wind Variable Wind from SW
Gusts 14.0 mph

Today
High -- | Low -- °F
--% Chance of Precip.
Yesterday
High -- | Low -- °F
Precip. -- in
6:09 AM 7:14 PM
Waxing Crescent, 44% visible
Pressure 29.95 in
Visibility 10.0 miles
Clouds Clear
Heat Index 80 °F
Dew Point 32 °F
Humidity 16%
Rainfall 0.00 in
Snow Depth Not available.
UV 9 out of 12
Pollen 8.40 out of 12
Air Quality Not available.
Flu Activity Not available.
METAR KEKO 012056Z AUTO VRB04KT 10SM CLR 27/M02 A3008 RMK AO2 SLP142 T02721022 58016 $

More Conditions Fewer Conditions

Pressure 29.95 in
Visibility 10.0 miles
Clouds Clear
Heat Index 80 °F
Dew Point 32 °F
Humidity 16%
Rainfall 0.00 in
Snow Depth Not available.
UV 9 out of 12
Pollen 8.40 out of 12
Air Quality Not available.
Flu Activity Not available.
METAR KEKO 012056Z AUTO VRB04KT 10SM CLR 27/M02 A3008 RMK AO2 SLP142 T02721022 58016 $

More Conditions Fewer Conditions

10-Day Weather Forecast

Almanac

Astronomy

Sep. 01, 2014 Rise Set
Actual Time 6:09 AM PDT 7:14 PM PDT
Civil Twilight 5:41 AM PDT 7:42 PM PDT
Nautical Twilight 5:08 AM PDT 8:16 PM PDT
Astronomical Twilight 4:32 AM PDT 8:51 PM PDT
Moon 1:02 PM PDT 11:17 PM PDT
Length of Visible Light 14h 01m
Length of Day
13h 05m
Tomorrow will be 2m 36s shorter.
Waxing Crescent, 44% of the Moon is Illuminated
Today
Waxing Crescent
Sep 2
First Quarter
Sep 8
Full
Sep 15
Last Quarter
Sep 24
New

Today's Extremes

State Highs State Lows

Community

WunderPhotos

Upload Photos

1,749,417 photos uploaded!

WunderBlogs® & News

Nearby

Snow Depth

Station Depth Elevation
Taylor Canyon 1 in 6200 ft
Jacks Peak 4 in 8420 ft
Jack Creek Upper 0 in 7250 ft
Bear Creek 0 in 7800 ft
Diamond Peak 0 in 8000 ft

Earthquake Activity

City Distance Mag. Time & Date
No recent earthquake activity has been reported nearby.
Minimum magnitude displayed is 2.5.

Coastal Water Temperatures

Place Temperature
No Stations Reporting

Nearby Weather Stations